CCGS Samuel Risley — CG2960 — position and weather

sailwx.info

Track history (hours):
 
Tides and Currents Weather Stations Pressure Air Temp Water Temp Dewpoint Dewpoint Depression Visibility Wind Speed Wind Dir Waves Ship Positions

CCGS Samuel Risley (Canada)

Medium Navaids Tender - Light Icebreaker

Last reported at 2017-Nov-20 07:00 UTC. Time now 2017-Nov-20 07:58 UTC.
Position N 42°54' W 082°24'.

Length 69.73 m; beam 13.7 m; draft 5.2 m.

Type: SAR. MMSI: 316001890.

Barometer 1016.7 mb
Air temperature -2.3 ° C
Dewpoint -6.8 ° C

Date/timePositionNaut miles runAvg speedWind from/ knotsBaromVisibWave heightAir tempDewpointWater temp
2017-Nov-20 07:00N 42°54' W 082°24'0 0.0 1016.7 -2.3-6.8
2017-Nov-20 06:00N 42°54' W 082°24'0 0.0 1016.6 -1.7-6.9
2017-Nov-20 05:00N 42°54' W 082°24'0 0.0 1016.2 -1.4-7.8
2017-Nov-20 04:00N 42°54' W 082°24'0 0.0 1015.9 -1.1-7.9
2017-Nov-20 02:00N 42°54' W 082°24'0 0.0 1014.9 -1.1-8.1
2017-Nov-20 01:00N 42°54' W 082°24'0 0.0 1014.1 -0.4-6.7
2017-Nov-20 00:00N 42°54' W 082°24'0 0.0 1013.6 0.2-5.2
2017-Nov-19 22:00N 42°54' W 082°24'0 0.0 1012.2 1.2-6.7
2017-Nov-19 21:00N 42°54' W 082°24'0 0.0 1011.7 0.7-5.6
2017-Nov-19 20:00N 42°54' W 082°24'0 0.0 1010.9 0.6-4.5
2017-Nov-19 18:00N 42°54' W 082°24'6 3.0 1010.2 1.1-2.8
2017-Nov-19 16:00N 43°00' W 082°24'1212.0 360 / 91009.6 1.9-2.3
2017-Nov-19 15:00N 43°12' W 082°24'1212.0 360 / 121008.5 2.3-2.1
2017-Nov-19 14:00N 43°24' W 082°24'1212.0 360 / 121007.6 2.0-1.4
2017-Nov-19 13:00N 43°36' W 082°24'1212.0 360 / 121006.5 2.4-2.9
2017-Nov-19 12:00N 43°48' W 082°24'6 6.0 360 / 121005.0 2.5-1.9
2017-Nov-19 11:00N 43°54' W 082°24'1918.5 340 / 121004.2 2.6-0.3
2017-Nov-19 10:00N 44°12' W 082°30'7 7.4 340 / 121002.8 5.5-0.3
2017-Nov-19 09:00N 44°18' W 082°36'1312.7 340 / 121001.5 3.7-1.4
2017-Nov-19 08:00N 44°30' W 082°42'1312.7 340 / 121000.6 5.8-0.5
2017-Nov-19 07:00N 44°42' W 082°48'1312.7 340 / 12999.6 8.0 2.3
2017-Nov-19 06:00N 44°54' W 082°54'1212.0 340 / 12999.4 6.0 2.0
2017-Nov-19 05:00N 45°06' W 082°54'1312.7 340 / 12998.9 7.6 1.6
2017-Nov-19 04:00N 45°18' W 083°00'1312.7 350 / 12998.7 6.7 1.2
2017-Nov-19 03:00N 45°30' W 083°06'1312.7 340 / 12998.7 7.2 1.1
2017-Nov-19 02:00N 45°42' W 083°12'1212.0 350 / 12999.0 6.8 0.6
2017-Nov-19 01:00N 45°54' W 083°12'7 7.3 360 / 13998.8 4.1-0.2
2017-Nov-19 00:00N 46°00' W 083°06'1010.3 050 / 12998.4 2.8-0.0
2017-Nov-18 23:00N 46°06' W 082°54'4 4.2 997.9 3.6-0.1
2017-Nov-18 22:00N 46°06' W 082°48'1010.3 100 / 12998.0 2.8-0.2
2017-Nov-18 21:00N 46°00' W 082°36'14 6.9 130 / 12997.6 2.5 0.2
2017-Nov-18 19:00N 45°54' W 082°18'13 6.4 310 / 5998.1 2.7 0.8
2017-Nov-18 17:00N 46°06' W 082°12'6 6.0 090 / 5999.0 1.1 0.6
2017-Nov-18 16:00N 46°00' W 082°12'1010.3 150 / 12998.7 1.5 1.0
2017-Nov-18 15:00N 45°54' W 082°00'4 4.2 080 / 11999.6 2.2 1.8
2017-Nov-18 14:00N 45°54' W 081°54'8 8.4 1000.0 6.2 3.1
2017-Nov-18 13:00N 45°54' W 082°06'1312.7 280 / 101000.5 3.0 2.1
2017-Nov-18 12:00N 46°06' W 082°12'1010.3 250 / 91000.8 2.3 1.6
2017-Nov-18 11:00N 46°00' W 082°24'8 8.3 270 / 91000.2 3.1 2.2
2017-Nov-18 10:00N 46°00' W 082°36'1312.5 270 / 91001.1 3.1 2.2
2017-Nov-18 09:00N 46°00' W 082°54'8 8.3 270 / 91002.2 2.4 1.6
2017-Nov-18 08:00N 46°00' W 083°06'7 7.3 240 / 121002.5 3.0 1.9
2017-Nov-18 07:00N 45°54' W 083°12'1312.7 180 / 111003.2 4.4 2.4
2017-Nov-18 06:00N 45°42' W 083°06'1010.3 150 / 111004.5 5.0 3.2
2017-Nov-18 05:00N 45°36' W 082°54'7 7.3 110 / 101004.9 4.8 3.8
2017-Nov-18 04:00N 45°30' W 082°48'1312.6 110 / 101007.2 6.0 4.0
2017-Nov-18 03:00N 45°30' W 082°30'1414.0 130 / 141008.3 6.0 3.5
2017-Nov-18 02:00N 45°24' W 082°12'1312.6 110 / 121010.2 5.4 3.0
2017-Nov-18 01:00N 45°24' W 081°54'1010.3 100 / 111011.8 4.4 1.7
2017-Nov-18 00:00N 45°18' W 081°42'8 8.4 110 / 121013.9 1.7-1.4
2017-Nov-17 23:00N 45°18' W 081°30'1312.7 090 / 111015.8 1.7-3.3
2017-Nov-17 22:00N 45°18' W 081°12'1312.7 090 / 111017.3 1.6-2.4
2017-Nov-17 21:00N 45°18' W 080°54'8 8.4 090 / 121018.4 1.0-1.7
2017-Nov-17 20:00N 45°18' W 080°42'1414.0 090 / 121020.2 -0.6-3.4
2017-Nov-17 19:00N 45°24' W 080°24'1414.0 120 / 91022.6 -2.3-6.5
2017-Nov-17 18:00N 45°18' W 080°06'4 0.7 120 / 91022.9 -2.6-8.5
2017-Nov-17 12:00N 45°18' W 080°00'0 0.0 1026.5 -5.1-9.6
2017-Nov-17 06:00N 45°18' W 080°00'0 0.0 360 / 11023.7 -3.4-8.3
2017-Nov-17 00:00N 45°18' W 080°00'0 0.0 350 / 71019.6 -1.9-6.7
2017-Nov-16 18:00N 45°18' W 080°00'0 0.0 340 / 81009.9 1.6-1.3
2017-Nov-16 12:00N 45°18' W 080°00'0 0.0 280 / 141000.6 5.6 4.0
2017-Nov-16 06:00N 45°18' W 080°00'0 0.0 150 / 5999.6 5.3 4.7
2017-Nov-16 00:00N 45°18' W 080°00'0 0.0 120 / 121006.9 3.0 1.0
2017-Nov-15 18:00N 45°18' W 080°00'0 0.0 150 / 91014.3 6.0 1.5
2017-Nov-15 12:00N 45°18' W 080°00'0 0.0 140 / 71020.7 3.2-0.8
2017-Nov-15 11:00N 45°18' W 080°00'0 0.0 150 / 61021.7 3.5-0.8
2017-Nov-15 10:00N 45°18' W 080°00'0 0.0 140 / 51022.1 3.0-0.9
2017-Nov-15 09:00N 45°18' W 080°00'0 0.0 150 / 61022.6 2.9-0.8
2017-Nov-15 08:00N 45°18' W 080°00'0 0.0 150 / 51023.2 3.0-0.5
2017-Nov-15 07:00N 45°18' W 080°00'0 0.0 140 / 71023.5 2.9-0.4
2017-Nov-15 06:00N 45°18' W 080°00'0 0.0 150 / 51023.9 3.2-0.0
2017-Nov-15 05:00N 45°18' W 080°00'0 0.0 140 / 51024.1 3.0 0.2
2017-Nov-15 04:00N 45°18' W 080°00'0 0.0 140 / 61024.5 3.4 0.4
2017-Nov-15 03:00N 45°18' W 080°00'0 0.0 150 / 51024.6 3.6 0.9
2017-Nov-15 02:00N 45°18' W 080°00'0 0.0 160 / 71024.7 4.2 1.2
2017-Nov-15 01:00N 45°18' W 080°00'0 0.0 160 / 61024.9 4.6 2.2
2017-Nov-15 00:00N 45°18' W 080°00'0 0.0 1025.1 3.5 1.8
2017-Nov-14 23:00N 45°18' W 080°00'0 0.0 1025.6 4.2 1.9
2017-Nov-14 20:00N 45°18' W 080°00'0 0.0 1026.5 5.0 1.7
2017-Nov-14 19:00N 45°18' W 080°00'0 0.0 1027.0 4.9 1.3
2017-Nov-14 17:00N 45°18' W 080°00'0 0.0 1028.0 3.8 1.7
2017-Nov-14 16:00N 45°18' W 080°00'4 2.1 1028.4 4.0-0.8
2017-Nov-14 14:00N 45°18' W 080°06'1414.0 130 / 41028.6 2.4 0.7
2017-Nov-14 13:00N 45°24' W 080°24'7 7.3 090 / 51028.7 2.6 0.8
2017-Nov-14 12:00N 45°18' W 080°30'8 8.4 310 / 51028.6 3.2 0.5
2017-Nov-14 11:00N 45°18' W 080°42'2110.6 350 / 101028.4 2.1 1.0
2017-Nov-14 09:00N 45°18' W 081°12'8 8.4 340 / 41028.3 3.9 1.0
2017-Nov-14 08:00N 45°18' W 081°24'8 8.4 270 / 91028.5 4.2 0.8
2017-Nov-14 07:00N 45°18' W 081°36'8 8.4 240 / 41028.5 3.7 1.4
2017-Nov-14 06:00N 45°18' W 081°48'1010.3 030 / 21028.8 3.5 1.0
2017-Nov-14 05:00N 45°24' W 082°00'1414.0 300 / 61029.0 3.2 0.8
2017-Nov-14 04:00N 45°30' W 082°18'2110.3 210 / 41029.1 3.4 0.2
2017-Nov-14 02:00N 45°42' W 082°42'2110.5 070 / 21029.0 3.7-1.3
2017-Nov-14 00:00N 45°42' W 083°12'1413.9 290 / 31029.4 3.7-1.3
2017-Nov-13 23:00N 45°48' W 083°30'8 8.4 310 / 41029.4 3.4-1.0
2017-Nov-13 22:00N 45°48' W 083°42'1010.3 340 / 31029.6 3.1-0.8
2017-Nov-13 21:00N 45°54' W 083°54'1312.7 010 / 31029.6 2.5-1.5
2017-Nov-13 20:00N 46°06' W 084°00'1010.3 360 / 11029.7 2.2-1.0
2017-Nov-13 19:00N 46°12' W 084°12'1212.0 220 / 11029.6 2.2-0.2
2017-Nov-13 18:00N 46°24' W 084°12'10 5.1 330 / 11029.9 2.1-0.3
2017-Nov-13 16:00N 46°30' W 084°24'4 4.1 240 / 21030.3 0.3 0.2
2017-Nov-13 15:00N 46°30' W 084°30'0 0.0 280 / 71030.0 2.1-0.0
2017-Nov-13 14:00N 46°30' W 084°30'4 4.1 130 / 41029.8 0.7 0.3
2017-Nov-13 13:00N 46°30' W 084°36'1010.2 280 / 71029.2 2.6-0.1
2017-Nov-13 12:00N 46°36' W 084°48'1312.7 300 / 71028.7 2.8-0.4
2017-Nov-13 11:00N 46°48' W 084°54'1010.2 320 / 101028.7 3.3-1.2
2017-Nov-13 10:00N 46°54' W 085°06'7 7.3 330 / 101028.4 4.2-1.0
2017-Nov-13 09:00N 47°00' W 085°12'7 7.3 320 / 81028.5 2.6-1.6
2017-Nov-13 08:00N 47°06' W 085°18'1010.1 320 / 81028.7 2.4-2.1
2017-Nov-13 07:00N 47°12' W 085°30'7 7.3 320 / 81028.4 2.7-2.5
2017-Nov-13 06:00N 47°18' W 085°36'1312.7 320 / 81028.2 1.9-2.6
2017-Nov-13 05:00N 47°30' W 085°42'7 7.2 310 / 101028.2 2.0-1.7
2017-Nov-13 04:00N 47°36' W 085°48'7 7.2 300 / 81028.1 1.8-2.2
2017-Nov-13 03:00N 47°42' W 085°54'1010.1 290 / 101027.9 1.9-2.5
2017-Nov-13 02:00N 47°48' W 086°06'7 7.2 290 / 91027.5 1.6-2.3
2017-Nov-13 01:00N 47°54' W 086°12'4 4.0 310 / 91027.3 1.7-2.0
2017-Nov-13 00:00N 47°54' W 086°18'1414.4 290 / 81026.9 1.4-2.2
2017-Nov-12 23:00N 48°06' W 086°30'7 7.2 280 / 91026.7 1.5-1.5
2017-Nov-12 22:00N 48°12' W 086°36'7 7.2 270 / 81026.2 1.5-2.3
2017-Nov-12 21:00N 48°18' W 086°42'7 7.2 340 / 31026.5 1.2-2.2
2017-Nov-12 20:00N 48°24' W 086°48'7 7.2 320 / 71026.6 0.8-2.7
2017-Nov-12 19:00N 48°30' W 086°54'0 0.0 350 / 41026.7 0.3-3.0
2017-Nov-12 17:00N 48°30' W 086°54'1010.0 310 / 61027.0 -0.1-3.5
2017-Nov-12 16:00N 48°36' W 087°06'7 7.2 320 / 61027.1 -0.3-3.8
2017-Nov-12 15:00N 48°42' W 087°12'10 9.9 320 / 101027.3 -1.2-4.3
2017-Nov-12 14:00N 48°48' W 087°24'4 4.0 290 / 91027.0 -1.4-4.7
2017-Nov-12 13:00N 48°48' W 087°30'0 0.0 1026.7 -2.0-4.8
2017-Nov-12 07:00N 48°48' W 087°30'0 0.0 1024.3 -2.1-4.3
2017-Nov-12 05:00N 48°48' W 087°30'0 0.0 1023.5 -2.0-3.8
2017-Nov-12 04:00N 48°48' W 087°30'0 0.0 1022.9 -1.9-3.9
2017-Nov-12 00:00N 48°48' W 087°30'0 0.0 1021.2 -0.2-1.8
2017-Nov-11 23:00N 48°48' W 087°30'0 0.0 1020.5 -0.0-0.9
2017-Nov-11 20:00N 48°48' W 087°30'0 0.0 1019.7 -0.1-1.0
2017-Nov-11 18:00N 48°48' W 087°30'8 2.6 1020.8 0.2-1.1
2017-Nov-11 15:00N 48°48' W 087°18'10 9.9 150 / 101022.0 0.3-3.2
2017-Nov-11 14:00N 48°42' W 087°06'4 4.0 200 / 241021.9 0.1-3.7
2017-Nov-11 13:00N 48°42' W 087°00'4 4.0 090 / 61023.0 -0.5-3.0
2017-Nov-11 12:00N 48°42' W 086°54'4 2.0 210 / 211024.0 -0.0-2.2
2017-Nov-11 10:00N 48°42' W 087°00'4 4.0 140 / 51025.8 -1.1-3.4
2017-Nov-11 09:00N 48°42' W 086°54'4 2.0 300 / 61026.6 -1.0-3.1
2017-Nov-11 07:00N 48°42' W 087°00'4 4.0 120 / 41028.4 -1.4-4.8
2017-Nov-11 06:00N 48°42' W 086°54'1312.6 200 / 201029.3 -0.4-5.9
2017-Nov-11 05:00N 48°30' W 086°48'6 6.0 190 / 141030.5 -0.9-6.0
2017-Nov-11 04:00N 48°24' W 086°48'7 7.2 190 / 231031.3 -1.9-7.8
2017-Nov-11 03:00N 48°18' W 086°42'7 7.2 170 / 121032.1 -1.5-6.5
2017-Nov-11 02:00N 48°12' W 086°36'7 7.2 170 / 121033.4 -2.5-8.2
2017-Nov-11 01:00N 48°06' W 086°30'1414.4 150 / 141035.1 -3.3-9.1
2017-Nov-11 00:00N 47°54' W 086°18'1010.0 170 / 121036.0 -5.1-10.8
2017-Nov-10 23:00N 47°48' W 086°06'1414.5 170 / 111037.1 -5.9-11.7
2017-Nov-10 22:00N 47°36' W 085°54'1717.1 200 / 71037.7 -6.6-12.6
2017-Nov-10 21:00N 47°24' W 085°36'1414.5 220 / 81038.2 -6.7-13.6
2017-Nov-10 20:00N 47°12' W 085°24'1010.1 240 / 51038.2 -6.7-13.2
2017-Nov-10 19:00N 47°06' W 085°12'1717.2 300 / 41038.3 -6.7-12.6
2017-Nov-10 18:00N 46°54' W 084°54'1312.7 290 / 71038.3 -6.6-11.8
2017-Nov-10 17:00N 46°42' W 084°48'1514.6 300 / 101038.5 -6.7-12.1
2017-Nov-10 16:00N 46°30' W 084°36'4 4.1 010 / 91038.9 -7.8-11.8
2017-Nov-10 15:00N 46°30' W 084°30'4 4.1 030 / 41038.9 -10.4-12.8
2017-Nov-10 14:00N 46°30' W 084°24'4 4.1 310 / 41038.0 -12.4-15.5
2017-Nov-10 13:00N 46°30' W 084°18'0 0.0 010 / 11037.4 -14.6-18.7
2017-Nov-10 12:00N 46°30' W 084°18'0 0.0 1036.7 -16.4-20.7
2017-Nov-10 11:00N 46°30' W 084°18'0 0.0 340 / 41036.1 -16.5-21.6
2017-Nov-10 10:00N 46°30' W 084°18'0 0.0 350 / 21035.5 -17.0-21.3
2017-Nov-10 09:00N 46°30' W 084°18'0 0.0 340 / 31034.7 -16.4-21.3
2017-Nov-10 08:00N 46°30' W 084°18'0 0.0 330 / 61033.7 -16.3-21.8
2017-Nov-10 07:00N 46°30' W 084°18'   340 / 51032.1 -15.9-21.5
Track history (hours):
 
Tides and Currents Weather Stations Pressure Air Temp Water Temp Dewpoint Dewpoint Depression Visibility Wind Speed Wind Dir Waves Ship Positions

CCGS Samuel Risley (Canada)

Medium Navaids Tender - Light Icebreaker

Last reported at 2017-Nov-20 07:00 UTC. Time now 2017-Nov-20 07:58 UTC.
Position N 42°54' W 082°24'.

Length 69.73 m; beam 13.7 m; draft 5.2 m.

Type: SAR. MMSI: 316001890.

Barometer 1016.7 mb
Air temperature -2.3 ° C
Dewpoint -6.8 ° C

Date/timePositionNaut miles runAvg speedWind from/ knotsBaromVisibWave heightAir tempDewpointWater temp
2017-Nov-20 07:00N 42°54' W 082°24'0 0.0 1016.7 -2.3-6.8
2017-Nov-20 06:00N 42°54' W 082°24'0 0.0 1016.6 -1.7-6.9
2017-Nov-20 05:00N 42°54' W 082°24'0 0.0 1016.2 -1.4-7.8
2017-Nov-20 04:00N 42°54' W 082°24'0 0.0 1015.9 -1.1-7.9
2017-Nov-20 02:00N 42°54' W 082°24'0 0.0 1014.9 -1.1-8.1
2017-Nov-20 01:00N 42°54' W 082°24'0 0.0 1014.1 -0.4-6.7
2017-Nov-20 00:00N 42°54' W 082°24'0 0.0 1013.6 0.2-5.2
2017-Nov-19 22:00N 42°54' W 082°24'0 0.0 1012.2 1.2-6.7
2017-Nov-19 21:00N 42°54' W 082°24'0 0.0 1011.7 0.7-5.6
2017-Nov-19 20:00N 42°54' W 082°24'0 0.0 1010.9 0.6-4.5
2017-Nov-19 18:00N 42°54' W 082°24'6 3.0 1010.2 1.1-2.8
2017-Nov-19 16:00N 43°00' W 082°24'1212.0 360 / 91009.6 1.9-2.3
2017-Nov-19 15:00N 43°12' W 082°24'1212.0 360 / 121008.5 2.3-2.1
2017-Nov-19 14:00N 43°24' W 082°24'1212.0 360 / 121007.6 2.0-1.4
2017-Nov-19 13:00N 43°36' W 082°24'1212.0 360 / 121006.5 2.4-2.9
2017-Nov-19 12:00N 43°48' W 082°24'6 6.0 360 / 121005.0 2.5-1.9
2017-Nov-19 11:00N 43°54' W 082°24'1918.5 340 / 121004.2 2.6-0.3
2017-Nov-19 10:00N 44°12' W 082°30'7 7.4 340 / 121002.8 5.5-0.3
2017-Nov-19 09:00N 44°18' W 082°36'1312.7 340 / 121001.5 3.7-1.4
2017-Nov-19 08:00N 44°30' W 082°42'1312.7 340 / 121000.6 5.8-0.5
2017-Nov-19 07:00N 44°42' W 082°48'1312.7 340 / 12999.6 8.0 2.3
2017-Nov-19 06:00N 44°54' W 082°54'1212.0 340 / 12999.4 6.0 2.0
2017-Nov-19 05:00N 45°06' W 082°54'1312.7 340 / 12998.9 7.6 1.6
2017-Nov-19 04:00N 45°18' W 083°00'1312.7 350 / 12998.7 6.7 1.2
2017-Nov-19 03:00N 45°30' W 083°06'1312.7 340 / 12998.7 7.2 1.1
2017-Nov-19 02:00N 45°42' W 083°12'1212.0 350 / 12999.0 6.8 0.6
2017-Nov-19 01:00N 45°54' W 083°12'7 7.3 360 / 13998.8 4.1-0.2
2017-Nov-19 00:00N 46°00' W 083°06'1010.3 050 / 12998.4 2.8-0.0
2017-Nov-18 23:00N 46°06' W 082°54'4 4.2 997.9 3.6-0.1
2017-Nov-18 22:00N 46°06' W 082°48'1010.3 100 / 12998.0 2.8-0.2
2017-Nov-18 21:00N 46°00' W 082°36'14 6.9 130 / 12997.6 2.5 0.2
2017-Nov-18 19:00N 45°54' W 082°18'13 6.4 310 / 5998.1 2.7 0.8
2017-Nov-18 17:00N 46°06' W 082°12'6 6.0 090 / 5999.0 1.1 0.6
2017-Nov-18 16:00N 46°00' W 082°12'1010.3 150 / 12998.7 1.5 1.0
2017-Nov-18 15:00N 45°54' W 082°00'4 4.2 080 / 11999.6 2.2 1.8
2017-Nov-18 14:00N 45°54' W 081°54'8 8.4 1000.0 6.2 3.1
2017-Nov-18 13:00N 45°54' W 082°06'1312.7 280 / 101000.5 3.0 2.1
2017-Nov-18 12:00N 46°06' W 082°12'1010.3 250 / 91000.8 2.3 1.6
2017-Nov-18 11:00N 46°00' W 082°24'8 8.3 270 / 91000.2 3.1 2.2
2017-Nov-18 10:00N 46°00' W 082°36'1312.5 270 / 91001.1 3.1 2.2
2017-Nov-18 09:00N 46°00' W 082°54'8 8.3 270 / 91002.2 2.4 1.6
2017-Nov-18 08:00N 46°00' W 083°06'7 7.3 240 / 121002.5 3.0 1.9
2017-Nov-18 07:00N 45°54' W 083°12'1312.7 180 / 111003.2 4.4 2.4
2017-Nov-18 06:00N 45°42' W 083°06'1010.3 150 / 111004.5 5.0 3.2
2017-Nov-18 05:00N 45°36' W 082°54'7 7.3 110 / 101004.9 4.8 3.8
2017-Nov-18 04:00N 45°30' W 082°48'1312.6 110 / 101007.2 6.0 4.0
2017-Nov-18 03:00N 45°30' W 082°30'1414.0 130 / 141008.3 6.0 3.5
2017-Nov-18 02:00N 45°24' W 082°12'1312.6 110 / 121010.2 5.4 3.0
2017-Nov-18 01:00N 45°24' W 081°54'1010.3 100 / 111011.8 4.4 1.7
2017-Nov-18 00:00N 45°18' W 081°42'8 8.4 110 / 121013.9 1.7-1.4
2017-Nov-17 23:00N 45°18' W 081°30'1312.7 090 / 111015.8 1.7-3.3
2017-Nov-17 22:00N 45°18' W 081°12'1312.7 090 / 111017.3 1.6-2.4
2017-Nov-17 21:00N 45°18' W 080°54'8 8.4 090 / 121018.4 1.0-1.7
2017-Nov-17 20:00N 45°18' W 080°42'1414.0 090 / 121020.2 -0.6-3.4
2017-Nov-17 19:00N 45°24' W 080°24'1414.0 120 / 91022.6 -2.3-6.5
2017-Nov-17 18:00N 45°18' W 080°06'4 0.7 120 / 91022.9 -2.6-8.5
2017-Nov-17 12:00N 45°18' W 080°00'0 0.0 1026.5 -5.1-9.6
2017-Nov-17 06:00N 45°18' W 080°00'0 0.0 360 / 11023.7 -3.4-8.3
2017-Nov-17 00:00N 45°18' W 080°00'0 0.0 350 / 71019.6 -1.9-6.7
2017-Nov-16 18:00N 45°18' W 080°00'0 0.0 340 / 81009.9 1.6-1.3
2017-Nov-16 12:00N 45°18' W 080°00'0 0.0 280 / 141000.6 5.6 4.0
2017-Nov-16 06:00N 45°18' W 080°00'0 0.0 150 / 5999.6 5.3 4.7
2017-Nov-16 00:00N 45°18' W 080°00'0 0.0 120 / 121006.9 3.0 1.0
2017-Nov-15 18:00N 45°18' W 080°00'0 0.0 150 / 91014.3 6.0 1.5
2017-Nov-15 12:00N 45°18' W 080°00'0 0.0 140 / 71020.7 3.2-0.8
2017-Nov-15 11:00N 45°18' W 080°00'0 0.0 150 / 61021.7 3.5-0.8
2017-Nov-15 10:00N 45°18' W 080°00'0 0.0 140 / 51022.1 3.0-0.9
2017-Nov-15 09:00N 45°18' W 080°00'0 0.0 150 / 61022.6 2.9-0.8
2017-Nov-15 08:00N 45°18' W 080°00'0 0.0 150 / 51023.2 3.0-0.5
2017-Nov-15 07:00N 45°18' W 080°00'0 0.0 140 / 71023.5 2.9-0.4
2017-Nov-15 06:00N 45°18' W 080°00'0 0.0 150 / 51023.9 3.2-0.0
2017-Nov-15 05:00N 45°18' W 080°00'0 0.0 140 / 51024.1 3.0 0.2
2017-Nov-15 04:00N 45°18' W 080°00'0 0.0 140 / 61024.5 3.4 0.4
2017-Nov-15 03:00N 45°18' W 080°00'0 0.0 150 / 51024.6 3.6 0.9
2017-Nov-15 02:00N 45°18' W 080°00'0 0.0 160 / 71024.7 4.2 1.2
2017-Nov-15 01:00N 45°18' W 080°00'0 0.0 160 / 61024.9 4.6 2.2
2017-Nov-15 00:00N 45°18' W 080°00'0 0.0 1025.1 3.5 1.8
2017-Nov-14 23:00N 45°18' W 080°00'0 0.0 1025.6 4.2 1.9
2017-Nov-14 20:00N 45°18' W 080°00'0 0.0 1026.5 5.0 1.7
2017-Nov-14 19:00N 45°18' W 080°00'0 0.0 1027.0 4.9 1.3
2017-Nov-14 17:00N 45°18' W 080°00'0 0.0 1028.0 3.8 1.7
2017-Nov-14 16:00N 45°18' W 080°00'4 2.1 1028.4 4.0-0.8
2017-Nov-14 14:00N 45°18' W 080°06'1414.0 130 / 41028.6 2.4 0.7
2017-Nov-14 13:00N 45°24' W 080°24'7 7.3 090 / 51028.7 2.6 0.8
2017-Nov-14 12:00N 45°18' W 080°30'8 8.4 310 / 51028.6 3.2 0.5
2017-Nov-14 11:00N 45°18' W 080°42'2110.6 350 / 101028.4 2.1 1.0
2017-Nov-14 09:00N 45°18' W 081°12'8 8.4 340 / 41028.3 3.9 1.0
2017-Nov-14 08:00N 45°18' W 081°24'8 8.4 270 / 91028.5 4.2 0.8
2017-Nov-14 07:00N 45°18' W 081°36'8 8.4 240 / 41028.5 3.7 1.4
2017-Nov-14 06:00N 45°18' W 081°48'1010.3 030 / 21028.8 3.5 1.0
2017-Nov-14 05:00N 45°24' W 082°00'1414.0 300 / 61029.0 3.2 0.8
2017-Nov-14 04:00N 45°30' W 082°18'2110.3 210 / 41029.1 3.4 0.2
2017-Nov-14 02:00N 45°42' W 082°42'2110.5 070 / 21029.0 3.7-1.3
2017-Nov-14 00:00N 45°42' W 083°12'1413.9 290 / 31029.4 3.7-1.3
2017-Nov-13 23:00N 45°48' W 083°30'8 8.4 310 / 41029.4 3.4-1.0
2017-Nov-13 22:00N 45°48' W 083°42'1010.3 340 / 31029.6 3.1-0.8
2017-Nov-13 21:00N 45°54' W 083°54'1312.7 010 / 31029.6 2.5-1.5
2017-Nov-13 20:00N 46°06' W 084°00'1010.3 360 / 11029.7 2.2-1.0
2017-Nov-13 19:00N 46°12' W 084°12'1212.0 220 / 11029.6 2.2-0.2
2017-Nov-13 18:00N 46°24' W 084°12'10 5.1 330 / 11029.9 2.1-0.3
2017-Nov-13 16:00N 46°30' W 084°24'4 4.1 240 / 21030.3 0.3 0.2
2017-Nov-13 15:00N 46°30' W 084°30'0 0.0 280 / 71030.0 2.1-0.0
2017-Nov-13 14:00N 46°30' W 084°30'4 4.1 130 / 41029.8 0.7 0.3
2017-Nov-13 13:00N 46°30' W 084°36'1010.2 280 / 71029.2 2.6-0.1
2017-Nov-13 12:00N 46°36' W 084°48'1312.7 300 / 71028.7 2.8-0.4
2017-Nov-13 11:00N 46°48' W 084°54'1010.2 320 / 101028.7 3.3-1.2
2017-Nov-13 10:00N 46°54' W 085°06'7 7.3 330 / 101028.4 4.2-1.0
2017-Nov-13 09:00N 47°00' W 085°12'7 7.3 320 / 81028.5 2.6-1.6
2017-Nov-13 08:00N 47°06' W 085°18'1010.1 320 / 81028.7 2.4-2.1
2017-Nov-13 07:00N 47°12' W 085°30'7 7.3 320 / 81028.4 2.7-2.5
2017-Nov-13 06:00N 47°18' W 085°36'1312.7 320 / 81028.2 1.9-2.6
2017-Nov-13 05:00N 47°30' W 085°42'7 7.2 310 / 101028.2 2.0-1.7
2017-Nov-13 04:00N 47°36' W 085°48'7 7.2 300 / 81028.1 1.8-2.2
2017-Nov-13 03:00N 47°42' W 085°54'1010.1 290 / 101027.9 1.9-2.5
2017-Nov-13 02:00N 47°48' W 086°06'7 7.2 290 / 91027.5 1.6-2.3
2017-Nov-13 01:00N 47°54' W 086°12'4 4.0 310 / 91027.3 1.7-2.0
2017-Nov-13 00:00N 47°54' W 086°18'1414.4 290 / 81026.9 1.4-2.2
2017-Nov-12 23:00N 48°06' W 086°30'7 7.2 280 / 91026.7 1.5-1.5
2017-Nov-12 22:00N 48°12' W 086°36'7 7.2 270 / 81026.2 1.5-2.3
2017-Nov-12 21:00N 48°18' W 086°42'7 7.2 340 / 31026.5 1.2-2.2
2017-Nov-12 20:00N 48°24' W 086°48'7 7.2 320 / 71026.6 0.8-2.7
2017-Nov-12 19:00N 48°30' W 086°54'0 0.0 350 / 41026.7 0.3-3.0
2017-Nov-12 17:00N 48°30' W 086°54'1010.0 310 / 61027.0 -0.1-3.5
2017-Nov-12 16:00N 48°36' W 087°06'7 7.2 320 / 61027.1 -0.3-3.8
2017-Nov-12 15:00N 48°42' W 087°12'10 9.9 320 / 101027.3 -1.2-4.3
2017-Nov-12 14:00N 48°48' W 087°24'4 4.0 290 / 91027.0 -1.4-4.7
2017-Nov-12 13:00N 48°48' W 087°30'0 0.0 1026.7 -2.0-4.8
2017-Nov-12 07:00N 48°48' W 087°30'0 0.0 1024.3 -2.1-4.3
2017-Nov-12 05:00N 48°48' W 087°30'0 0.0 1023.5 -2.0-3.8
2017-Nov-12 04:00N 48°48' W 087°30'0 0.0 1022.9 -1.9-3.9
2017-Nov-12 00:00N 48°48' W 087°30'0 0.0 1021.2 -0.2-1.8
2017-Nov-11 23:00N 48°48' W 087°30'0 0.0 1020.5 -0.0-0.9
2017-Nov-11 20:00N 48°48' W 087°30'0 0.0 1019.7 -0.1-1.0
2017-Nov-11 18:00N 48°48' W 087°30'8 2.6 1020.8 0.2-1.1
2017-Nov-11 15:00N 48°48' W 087°18'10 9.9 150 / 101022.0 0.3-3.2
2017-Nov-11 14:00N 48°42' W 087°06'4 4.0 200 / 241021.9 0.1-3.7
2017-Nov-11 13:00N 48°42' W 087°00'4 4.0 090 / 61023.0 -0.5-3.0
2017-Nov-11 12:00N 48°42' W 086°54'4 2.0 210 / 211024.0 -0.0-2.2
2017-Nov-11 10:00N 48°42' W 087°00'4 4.0 140 / 51025.8 -1.1-3.4
2017-Nov-11 09:00N 48°42' W 086°54'4 2.0 300 / 61026.6 -1.0-3.1
2017-Nov-11 07:00N 48°42' W 087°00'4 4.0 120 / 41028.4 -1.4-4.8
2017-Nov-11 06:00N 48°42' W 086°54'1312.6 200 / 201029.3 -0.4-5.9
2017-Nov-11 05:00N 48°30' W 086°48'6 6.0 190 / 141030.5 -0.9-6.0
2017-Nov-11 04:00N 48°24' W 086°48'7 7.2 190 / 231031.3 -1.9-7.8
2017-Nov-11 03:00N 48°18' W 086°42'7 7.2 170 / 121032.1 -1.5-6.5
2017-Nov-11 02:00N 48°12' W 086°36'7 7.2 170 / 121033.4 -2.5-8.2
2017-Nov-11 01:00N 48°06' W 086°30'1414.4 150 / 141035.1 -3.3-9.1
2017-Nov-11 00:00N 47°54' W 086°18'1010.0 170 / 121036.0 -5.1-10.8
2017-Nov-10 23:00N 47°48' W 086°06'1414.5 170 / 111037.1 -5.9-11.7
2017-Nov-10 22:00N 47°36' W 085°54'1717.1 200 / 71037.7 -6.6-12.6
2017-Nov-10 21:00N 47°24' W 085°36'1414.5 220 / 81038.2 -6.7-13.6
2017-Nov-10 20:00N 47°12' W 085°24'1010.1 240 / 51038.2 -6.7-13.2
2017-Nov-10 19:00N 47°06' W 085°12'1717.2 300 / 41038.3 -6.7-12.6
2017-Nov-10 18:00N 46°54' W 084°54'1312.7 290 / 71038.3 -6.6-11.8
2017-Nov-10 17:00N 46°42' W 084°48'1514.6 300 / 101038.5 -6.7-12.1
2017-Nov-10 16:00N 46°30' W 084°36'4 4.1 010 / 91038.9 -7.8-11.8
2017-Nov-10 15:00N 46°30' W 084°30'4 4.1 030 / 41038.9 -10.4-12.8
2017-Nov-10 14:00N 46°30' W 084°24'4 4.1 310 / 41038.0 -12.4-15.5
2017-Nov-10 13:00N 46°30' W 084°18'0 0.0 010 / 11037.4 -14.6-18.7
2017-Nov-10 12:00N 46°30' W 084°18'0 0.0 1036.7 -16.4-20.7
2017-Nov-10 11:00N 46°30' W 084°18'0 0.0 340 / 41036.1 -16.5-21.6
2017-Nov-10 10:00N 46°30' W 084°18'0 0.0 350 / 21035.5 -17.0-21.3
2017-Nov-10 09:00N 46°30' W 084°18'0 0.0 340 / 31034.7 -16.4-21.3
2017-Nov-10 08:00N 46°30' W 084°18'0 0.0 330 / 61033.7 -16.3-21.8
2017-Nov-10 07:00N 46°30' W 084°18'   340 / 51032.1 -15.9-21.5

Dump ship's entire track history